stableinvestor.com alexa rank chart, stableinvestor.com alexa rank daily changes

stableinvestor.com alexa rank chart, stableinvestor.com alexa rank daily changes

stableinvestor.com
Actual rank:
428 531

RANK HISTORY

Date Rank Diff
2017/11/20 428 531 -6 358
2017/11/19 434 889 +3 639
2017/11/18 431 250 +22 575
2017/11/17 408 675 -17 059
2017/11/16 425 734 +8 416
2017/11/15 417 318 +152
2017/11/14 417 166 -6 877
2017/11/13 424 043 -5 672
2017/11/12 429 715 -7 042
2017/11/11 436 757 -5 808
2017/11/10 442 565 +4 167
2017/11/09 438 398 -984
2017/11/08 439 382 +774
2017/11/07 438 608 -11 234
2017/11/06 449 842 +2 542
2017/11/05 447 300 +7 190
2017/11/04 440 110 +7 265
2017/11/03 432 845 -28 173
2017/11/02 461 018 +7 493
2017/11/01 453 525 -4 754
2017/10/31 458 279 -12 125
2017/10/30 470 404 -6 149
2017/10/29 476 553 -19 703
2017/10/28 496 256 +4 676
2017/10/27 491 580 +5 397
2017/10/26 486 183 +22 296
2017/10/25 463 887 +1 915
2017/10/24 461 972 -2 352
2017/10/23 464 324 -4 778
2017/10/22 469 102 +7 072
2017/10/21 462 030 +7 046
2017/10/20 454 984 +5 713
2017/10/19 449 271 +3 117
2017/10/18 446 154 -27 488
2017/10/17 473 642 -12 836
2017/10/16 486 478 -4 251
2017/10/14 490 729 +2 826
2017/10/13 487 903 -616
2017/10/12 488 519 +4 604
2017/10/11 483 915 -3 768
2017/10/10 487 683 -5 918
2017/10/09 493 601 +17 031
2017/10/08 476 570 -11 469
2017/10/07 488 039 -3 543
2017/10/06 491 582 -2 149
2017/10/05 493 731 -14 599
2017/10/04 508 330 -8 648
2017/10/03 516 978 -17 377
2017/10/02 534 355 -15 626
2017/10/01 549 981 +2 356
2017/09/30 547 625 +9 157
2017/09/29 538 468 +6 148
2017/09/28 532 320 +12 808
2017/09/27 519 512 -7 677
2017/09/26 527 189 -17 401
2017/09/25 544 590 +10 471
2017/09/24 534 119 -5 831
2017/09/23 539 950 -11 109
2017/09/22 551 059

WIDGET FOR YOUR SITE

DOMAINS WITH THE NEAREST RANK

Domain Rank
femulate.org 428 526
portals1.com.br 428 527
moj-codzienny-horoskop.com 428 528
vasarhely24.com 428 529
stevenscreekbmw.com 428 530
stableinvestor.com 428 531
readingalquran.com 428 532
naenote.net 428 533
e-careers.co.uk 428 534
vr-bank-nordrhoen.de 428 535
guitarworks.jp 428 536

DOMAINS WITH THE NEAREST RANK BY TLD .com

Domain Rank
y7mko.com 428 518
colorkinetics.com 428 524
moj-codzienny-horoskop.com 428 528
vasarhely24.com 428 529
stevenscreekbmw.com 428 530
stableinvestor.com 428 531
readingalquran.com 428 532
aspenskiandboard.com 428 537
menslifedailynews.com 428 538
kurokasa.com 428 539
oliveandcocoa.com 428 542